METAR & TAF Report
Available data for CYAM from the past 6 hours
SAULT STE MARIE, ON
Metar
CYAM 140900Z VRB02KT 10SM MIFG SCT170 BKN210 14/14 A2989 RMK AC4CI3 VIS N 5 SLP124 DENSITY ALT 800FT

09:00 UTC

Wind: ° 2kt

Visibility: 10 SM

Sky: SCT 17000 ft

Temp: 14 deg C / 57.2 deg F

Dewpoint: 14 deg C / 57.2 deg F

Pressure: 29.89 inHg

TAF
TAF CYAM 140738Z 1408/1420 18005KT P6SM SKC PROB30 1408/1412 1/2SM FG VV002 FM141800 33012KT P6SM SCT050 RMK NXT FCST BY 141400Z
NOTAM

Click here for NOTAMs.